sensor_id;sensor_type;location;lat;lon;timestamp;P1;durP1;ratioP1;P2;durP2;ratioP2
17235;SDS011;8734;59.272;17.780;2023-11-22T00:02:05;4.20;;;1.53;;
17235;SDS011;8734;59.272;17.780;2023-11-22T00:04:33;2.87;;;1.63;;
17235;SDS011;8734;59.272;17.780;2023-11-22T00:07:02;2.90;;;1.87;;
17235;SDS011;8734;59.272;17.780;2023-11-22T00:09:30;2.23;;;1.77;;
17235;SDS011;8734;59.272;17.780;2023-11-22T00:11:59;2.60;;;1.70;;
17235;SDS011;8734;59.272;17.780;2023-11-22T00:14:29;7.60;;;1.73;;
17235;SDS011;8734;59.272;17.780;2023-11-22T00:16:58;2.50;;;1.90;;
17235;SDS011;8734;59.272;17.780;2023-11-22T00:19:28;2.67;;;1.73;;
17235;SDS011;8734;59.272;17.780;2023-11-22T00:21:57;2.30;;;1.80;;
17235;SDS011;8734;59.272;17.780;2023-11-22T00:24:25;2.40;;;1.80;;
17235;SDS011;8734;59.272;17.780;2023-11-22T00:26:54;1.67;;;1.43;;
17235;SDS011;8734;59.272;17.780;2023-11-22T00:29:23;2.13;;;1.40;;
17235;SDS011;8734;59.272;17.780;2023-11-22T00:31:52;2.60;;;1.87;;
17235;SDS011;8734;59.272;17.780;2023-11-22T00:34:21;1.83;;;1.47;;
17235;SDS011;8734;59.272;17.780;2023-11-22T00:36:50;2.07;;;1.77;;
17235;SDS011;8734;59.272;17.780;2023-11-22T00:39:18;2.20;;;2.00;;
17235;SDS011;8734;59.272;17.780;2023-11-22T00:41:47;2.20;;;1.70;;
17235;SDS011;8734;59.272;17.780;2023-11-22T00:44:15;2.57;;;1.50;;
17235;SDS011;8734;59.272;17.780;2023-11-22T00:46:44;2.87;;;1.70;;
17235;SDS011;8734;59.272;17.780;2023-11-22T00:49:13;2.17;;;1.97;;
17235;SDS011;8734;59.272;17.780;2023-11-22T00:51:42;2.40;;;1.67;;
17235;SDS011;8734;59.272;17.780;2023-11-22T00:54:11;2.80;;;1.77;;
17235;SDS011;8734;59.272;17.780;2023-11-22T00:56:40;6.37;;;2.13;;
17235;SDS011;8734;59.272;17.780;2023-11-22T00:59:08;3.23;;;2.33;;
17235;SDS011;8734;59.272;17.780;2023-11-22T01:01:36;5.97;;;1.90;;
17235;SDS011;8734;59.272;17.780;2023-11-22T01:04:05;1.50;;;1.40;;
17235;SDS011;8734;59.272;17.780;2023-11-22T01:06:34;4.40;;;2.17;;
17235;SDS011;8734;59.272;17.780;2023-11-22T01:09:04;4.13;;;1.83;;
17235;SDS011;8734;59.272;17.780;2023-11-22T01:11:35;4.43;;;2.53;;
17235;SDS011;8734;59.272;17.780;2023-11-22T01:14:04;2.67;;;1.63;;
17235;SDS011;8734;59.272;17.780;2023-11-22T01:16:32;5.83;;;2.40;;
17235;SDS011;8734;59.272;17.780;2023-11-22T01:19:03;2.63;;;1.43;;
17235;SDS011;8734;59.272;17.780;2023-11-22T01:21:32;2.50;;;1.90;;
17235;SDS011;8734;59.272;17.780;2023-11-22T01:24:00;4.77;;;1.90;;
17235;SDS011;8734;59.272;17.780;2023-11-22T01:26:30;2.57;;;1.80;;
17235;SDS011;8734;59.272;17.780;2023-11-22T01:28:58;4.00;;;2.37;;
17235;SDS011;8734;59.272;17.780;2023-11-22T01:31:28;2.90;;;1.87;;
17235;SDS011;8734;59.272;17.780;2023-11-22T01:33:57;5.53;;;2.33;;
17235;SDS011;8734;59.272;17.780;2023-11-22T01:36:25;4.47;;;2.10;;
17235;SDS011;8734;59.272;17.780;2023-11-22T01:38:54;3.43;;;2.17;;
17235;SDS011;8734;59.272;17.780;2023-11-22T01:41:23;2.63;;;1.60;;
17235;SDS011;8734;59.272;17.780;2023-11-22T01:43:53;3.10;;;2.13;;
17235;SDS011;8734;59.272;17.780;2023-11-22T01:46:22;4.33;;;2.20;;
17235;SDS011;8734;59.272;17.780;2023-11-22T01:48:52;3.30;;;1.83;;
17235;SDS011;8734;59.272;17.780;2023-11-22T01:51:22;3.57;;;2.23;;
17235;SDS011;8734;59.272;17.780;2023-11-22T01:53:53;4.03;;;2.00;;
17235;SDS011;8734;59.272;17.780;2023-11-22T01:56:24;5.17;;;2.10;;
17235;SDS011;8734;59.272;17.780;2023-11-22T01:58:56;4.70;;;2.30;;
17235;SDS011;8734;59.272;17.780;2023-11-22T02:01:26;2.97;;;2.17;;
17235;SDS011;8734;59.272;17.780;2023-11-22T02:03:55;3.30;;;2.17;;
17235;SDS011;8734;59.272;17.780;2023-11-22T02:06:24;2.80;;;1.83;;
17235;SDS011;8734;59.272;17.780;2023-11-22T02:08:52;10.10;;;2.33;;
17235;SDS011;8734;59.272;17.780;2023-11-22T02:11:22;3.33;;;1.97;;
17235;SDS011;8734;59.272;17.780;2023-11-22T02:13:51;2.93;;;1.90;;
17235;SDS011;8734;59.272;17.780;2023-11-22T02:16:21;3.33;;;1.70;;
17235;SDS011;8734;59.272;17.780;2023-11-22T02:18:49;3.10;;;1.97;;
17235;SDS011;8734;59.272;17.780;2023-11-22T02:21:18;3.27;;;1.90;;
17235;SDS011;8734;59.272;17.780;2023-11-22T02:23:49;3.27;;;2.00;;
17235;SDS011;8734;59.272;17.780;2023-11-22T02:26:17;4.37;;;1.90;;
17235;SDS011;8734;59.272;17.780;2023-11-22T02:28:46;2.40;;;2.07;;
17235;SDS011;8734;59.272;17.780;2023-11-22T02:31:15;2.83;;;2.17;;
17235;SDS011;8734;59.272;17.780;2023-11-22T02:33:44;5.87;;;1.50;;
17235;SDS011;8734;59.272;17.780;2023-11-22T02:36:12;2.07;;;1.60;;
17235;SDS011;8734;59.272;17.780;2023-11-22T02:38:41;4.00;;;2.33;;
17235;SDS011;8734;59.272;17.780;2023-11-22T02:41:12;2.47;;;1.80;;
17235;SDS011;8734;59.272;17.780;2023-11-22T02:43:41;3.07;;;1.77;;
17235;SDS011;8734;59.272;17.780;2023-11-22T02:46:09;4.13;;;1.90;;
17235;SDS011;8734;59.272;17.780;2023-11-22T02:48:36;2.13;;;1.77;;
17235;SDS011;8734;59.272;17.780;2023-11-22T02:51:05;3.27;;;1.90;;
17235;SDS011;8734;59.272;17.780;2023-11-22T02:53:34;4.97;;;1.80;;
17235;SDS011;8734;59.272;17.780;2023-11-22T02:56:03;2.53;;;1.80;;
17235;SDS011;8734;59.272;17.780;2023-11-22T02:58:34;2.33;;;1.83;;
17235;SDS011;8734;59.272;17.780;2023-11-22T03:01:02;3.80;;;1.87;;
17235;SDS011;8734;59.272;17.780;2023-11-22T03:03:30;2.97;;;1.90;;
17235;SDS011;8734;59.272;17.780;2023-11-22T03:05:59;2.13;;;1.50;;
17235;SDS011;8734;59.272;17.780;2023-11-22T03:08:27;2.57;;;1.90;;
17235;SDS011;8734;59.272;17.780;2023-11-22T03:10:56;2.50;;;1.80;;
17235;SDS011;8734;59.272;17.780;2023-11-22T03:13:24;2.13;;;1.67;;
17235;SDS011;8734;59.272;17.780;2023-11-22T03:15:54;3.10;;;2.07;;
17235;SDS011;8734;59.272;17.780;2023-11-22T03:18:22;3.63;;;1.63;;
17235;SDS011;8734;59.272;17.780;2023-11-22T03:20:51;2.73;;;1.73;;
17235;SDS011;8734;59.272;17.780;2023-11-22T03:23:21;3.10;;;1.97;;
17235;SDS011;8734;59.272;17.780;2023-11-22T03:25:49;1.93;;;1.47;;
17235;SDS011;8734;59.272;17.780;2023-11-22T03:28:17;1.97;;;1.77;;
17235;SDS011;8734;59.272;17.780;2023-11-22T03:30:46;1.73;;;1.57;;
17235;SDS011;8734;59.272;17.780;2023-11-22T03:33:15;1.87;;;1.67;;
17235;SDS011;8734;59.272;17.780;2023-11-22T03:35:44;3.63;;;1.67;;
17235;SDS011;8734;59.272;17.780;2023-11-22T03:38:12;3.73;;;2.07;;
17235;SDS011;8734;59.272;17.780;2023-11-22T03:40:40;3.00;;;1.70;;
17235;SDS011;8734;59.272;17.780;2023-11-22T03:43:09;2.33;;;1.63;;
17235;SDS011;8734;59.272;17.780;2023-11-22T03:45:37;2.13;;;1.57;;
17235;SDS011;8734;59.272;17.780;2023-11-22T03:48:06;1.80;;;1.40;;
17235;SDS011;8734;59.272;17.780;2023-11-22T03:50:36;1.37;;;1.27;;
17235;SDS011;8734;59.272;17.780;2023-11-22T03:53:04;2.70;;;1.40;;
17235;SDS011;8734;59.272;17.780;2023-11-22T03:55:33;2.73;;;1.80;;
17235;SDS011;8734;59.272;17.780;2023-11-22T03:58:01;2.23;;;1.60;;
17235;SDS011;8734;59.272;17.780;2023-11-22T04:00:29;1.93;;;1.70;;
17235;SDS011;8734;59.272;17.780;2023-11-22T04:02:58;3.53;;;1.80;;
17235;SDS011;8734;59.272;17.780;2023-11-22T04:05:28;1.67;;;1.37;;
17235;SDS011;8734;59.272;17.780;2023-11-22T04:07:58;2.37;;;1.67;;
17235;SDS011;8734;59.272;17.780;2023-11-22T04:10:27;3.47;;;2.07;;
17235;SDS011;8734;59.272;17.780;2023-11-22T04:12:55;3.63;;;1.67;;
17235;SDS011;8734;59.272;17.780;2023-11-22T04:15:24;1.87;;;1.50;;
17235;SDS011;8734;59.272;17.780;2023-11-22T04:17:53;3.10;;;1.70;;
17235;SDS011;8734;59.272;17.780;2023-11-22T04:20:22;3.83;;;1.70;;
17235;SDS011;8734;59.272;17.780;2023-11-22T04:22:50;3.90;;;2.00;;
17235;SDS011;8734;59.272;17.780;2023-11-22T04:25:21;3.33;;;1.90;;
17235;SDS011;8734;59.272;17.780;2023-11-22T04:27:50;4.77;;;2.07;;
17235;SDS011;8734;59.272;17.780;2023-11-22T04:30:19;5.90;;;2.10;;
17235;SDS011;8734;59.272;17.780;2023-11-22T04:32:47;3.83;;;2.30;;
17235;SDS011;8734;59.272;17.780;2023-11-22T04:35:16;5.97;;;2.30;;
17235;SDS011;8734;59.272;17.780;2023-11-22T04:37:44;3.33;;;2.03;;
17235;SDS011;8734;59.272;17.780;2023-11-22T04:40:13;4.13;;;2.47;;
17235;SDS011;8734;59.272;17.780;2023-11-22T04:42:43;5.30;;;2.50;;
17235;SDS011;8734;59.272;17.780;2023-11-22T04:45:11;6.63;;;2.40;;
17235;SDS011;8734;59.272;17.780;2023-11-22T04:47:40;8.47;;;3.03;;
17235;SDS011;8734;59.272;17.780;2023-11-22T04:50:09;6.23;;;2.67;;
17235;SDS011;8734;59.272;17.780;2023-11-22T04:52:38;3.70;;;2.10;;
17235;SDS011;8734;59.272;17.780;2023-11-22T04:55:07;3.80;;;2.23;;
17235;SDS011;8734;59.272;17.780;2023-11-22T04:57:36;5.27;;;2.30;;
17235;SDS011;8734;59.272;17.780;2023-11-22T05:00:09;4.87;;;2.70;;
17235;SDS011;8734;59.272;17.780;2023-11-22T05:02:38;5.67;;;2.53;;
17235;SDS011;8734;59.272;17.780;2023-11-22T05:05:07;6.90;;;3.10;;
17235;SDS011;8734;59.272;17.780;2023-11-22T05:07:38;3.50;;;2.30;;
17235;SDS011;8734;59.272;17.780;2023-11-22T05:10:07;3.97;;;2.23;;
17235;SDS011;8734;59.272;17.780;2023-11-22T05:12:36;5.53;;;2.60;;
17235;SDS011;8734;59.272;17.780;2023-11-22T05:15:05;4.13;;;2.90;;
17235;SDS011;8734;59.272;17.780;2023-11-22T05:17:38;7.57;;;3.10;;
17235;SDS011;8734;59.272;17.780;2023-11-22T05:20:07;4.40;;;2.20;;
17235;SDS011;8734;59.272;17.780;2023-11-22T05:22:36;6.03;;;3.47;;
17235;SDS011;8734;59.272;17.780;2023-11-22T05:25:05;3.63;;;2.80;;
17235;SDS011;8734;59.272;17.780;2023-11-22T05:27:34;6.57;;;2.77;;
17235;SDS011;8734;59.272;17.780;2023-11-22T05:30:02;4.37;;;2.70;;
17235;SDS011;8734;59.272;17.780;2023-11-22T05:32:33;6.13;;;3.10;;
17235;SDS011;8734;59.272;17.780;2023-11-22T05:35:01;5.83;;;2.77;;
17235;SDS011;8734;59.272;17.780;2023-11-22T05:37:32;8.00;;;3.40;;
17235;SDS011;8734;59.272;17.780;2023-11-22T05:40:00;5.33;;;3.47;;
17235;SDS011;8734;59.272;17.780;2023-11-22T05:42:29;8.70;;;2.80;;
17235;SDS011;8734;59.272;17.780;2023-11-22T05:44:58;5.53;;;2.50;;
17235;SDS011;8734;59.272;17.780;2023-11-22T05:47:26;5.63;;;2.70;;
17235;SDS011;8734;59.272;17.780;2023-11-22T05:49:57;14.87;;;3.53;;
17235;SDS011;8734;59.272;17.780;2023-11-22T05:52:26;9.07;;;3.47;;
17235;SDS011;8734;59.272;17.780;2023-11-22T05:54:54;9.13;;;3.20;;
17235;SDS011;8734;59.272;17.780;2023-11-22T05:57:23;8.33;;;3.67;;
17235;SDS011;8734;59.272;17.780;2023-11-22T05:59:51;13.27;;;3.70;;
17235;SDS011;8734;59.272;17.780;2023-11-22T06:02:20;11.97;;;4.13;;
17235;SDS011;8734;59.272;17.780;2023-11-22T06:04:48;17.77;;;4.03;;
17235;SDS011;8734;59.272;17.780;2023-11-22T06:07:18;6.87;;;3.43;;
17235;SDS011;8734;59.272;17.780;2023-11-22T06:09:46;10.97;;;4.47;;
17235;SDS011;8734;59.272;17.780;2023-11-22T06:12:15;33.53;;;5.47;;
17235;SDS011;8734;59.272;17.780;2023-11-22T06:14:43;11.07;;;4.93;;
17235;SDS011;8734;59.272;17.780;2023-11-22T06:17:12;16.87;;;2.53;;
17235;SDS011;8734;59.272;17.780;2023-11-22T06:19:42;5.43;;;2.13;;
17235;SDS011;8734;59.272;17.780;2023-11-22T06:22:10;12.67;;;4.67;;
17235;SDS011;8734;59.272;17.780;2023-11-22T06:24:40;27.40;;;3.77;;
17235;SDS011;8734;59.272;17.780;2023-11-22T06:27:08;16.73;;;5.60;;
17235;SDS011;8734;59.272;17.780;2023-11-22T06:29:37;13.60;;;4.70;;
17235;SDS011;8734;59.272;17.780;2023-11-22T06:32:06;16.43;;;5.83;;
17235;SDS011;8734;59.272;17.780;2023-11-22T06:34:36;18.43;;;6.53;;
17235;SDS011;8734;59.272;17.780;2023-11-22T06:37:06;5.47;;;2.50;;
17235;SDS011;8734;59.272;17.780;2023-11-22T06:39:35;21.27;;;7.13;;
17235;SDS011;8734;59.272;17.780;2023-11-22T06:42:06;16.97;;;6.13;;
17235;SDS011;8734;59.272;17.780;2023-11-22T06:44:35;21.87;;;7.40;;
17235;SDS011;8734;59.272;17.780;2023-11-22T06:47:03;18.30;;;6.43;;
17235;SDS011;8734;59.272;17.780;2023-11-22T06:49:32;18.07;;;6.93;;
17235;SDS011;8734;59.272;17.780;2023-11-22T06:52:00;16.87;;;7.97;;
17235;SDS011;8734;59.272;17.780;2023-11-22T06:54:28;15.87;;;6.50;;
17235;SDS011;8734;59.272;17.780;2023-11-22T06:56:57;11.53;;;4.77;;
17235;SDS011;8734;59.272;17.780;2023-11-22T06:59:27;13.03;;;4.70;;
17235;SDS011;8734;59.272;17.780;2023-11-22T07:01:55;15.30;;;5.30;;
17235;SDS011;8734;59.272;17.780;2023-11-22T07:04:24;10.43;;;4.67;;
17235;SDS011;8734;59.272;17.780;2023-11-22T07:06:52;25.93;;;7.67;;
17235;SDS011;8734;59.272;17.780;2023-11-22T07:09:20;15.63;;;6.90;;
17235;SDS011;8734;59.272;17.780;2023-11-22T07:11:49;10.50;;;4.47;;
17235;SDS011;8734;59.272;17.780;2023-11-22T07:14:18;9.40;;;4.60;;
17235;SDS011;8734;59.272;17.780;2023-11-22T07:16:48;12.93;;;5.40;;
17235;SDS011;8734;59.272;17.780;2023-11-22T07:19:20;19.73;;;8.53;;
17235;SDS011;8734;59.272;17.780;2023-11-22T07:21:48;16.10;;;5.40;;
17235;SDS011;8734;59.272;17.780;2023-11-22T07:24:16;10.57;;;4.50;;
17235;SDS011;8734;59.272;17.780;2023-11-22T07:26:45;22.93;;;7.90;;
17235;SDS011;8734;59.272;17.780;2023-11-22T07:29:13;23.90;;;9.37;;
17235;SDS011;8734;59.272;17.780;2023-11-22T07:31:42;17.43;;;6.57;;
17235;SDS011;8734;59.272;17.780;2023-11-22T07:34:12;30.63;;;10.47;;
17235;SDS011;8734;59.272;17.780;2023-11-22T07:36:41;17.93;;;6.13;;
17235;SDS011;8734;59.272;17.780;2023-11-22T07:39:09;13.53;;;6.27;;
17235;SDS011;8734;59.272;17.780;2023-11-22T07:41:38;28.73;;;11.10;;
17235;SDS011;8734;59.272;17.780;2023-11-22T07:44:06;25.63;;;8.60;;
17235;SDS011;8734;59.272;17.780;2023-11-22T07:46:41;25.30;;;10.60;;
17235;SDS011;8734;59.272;17.780;2023-11-22T07:49:12;18.87;;;7.90;;
17235;SDS011;8734;59.272;17.780;2023-11-22T07:51:41;24.57;;;10.43;;
17235;SDS011;8734;59.272;17.780;2023-11-22T07:54:09;20.60;;;9.03;;
17235;SDS011;8734;59.272;17.780;2023-11-22T07:56:38;21.67;;;6.53;;
17235;SDS011;8734;59.272;17.780;2023-11-22T07:59:09;22.20;;;9.07;;
17235;SDS011;8734;59.272;17.780;2023-11-22T08:01:38;23.47;;;10.07;;
17235;SDS011;8734;59.272;17.780;2023-11-22T08:04:07;24.97;;;10.93;;
17235;SDS011;8734;59.272;17.780;2023-11-22T08:06:37;24.37;;;10.13;;
17235;SDS011;8734;59.272;17.780;2023-11-22T08:09:05;28.57;;;7.53;;
17235;SDS011;8734;59.272;17.780;2023-11-22T08:11:35;26.27;;;10.30;;
17235;SDS011;8734;59.272;17.780;2023-11-22T08:14:04;21.03;;;8.13;;
17235;SDS011;8734;59.272;17.780;2023-11-22T08:16:34;29.33;;;11.37;;
17235;SDS011;8734;59.272;17.780;2023-11-22T08:19:05;12.93;;;6.23;;
17235;SDS011;8734;59.272;17.780;2023-11-22T08:21:34;18.13;;;7.27;;
17235;SDS011;8734;59.272;17.780;2023-11-22T08:24:04;12.40;;;5.40;;
17235;SDS011;8734;59.272;17.780;2023-11-22T08:26:33;16.90;;;7.57;;
17235;SDS011;8734;59.272;17.780;2023-11-22T08:29:02;9.60;;;4.83;;
17235;SDS011;8734;59.272;17.780;2023-11-22T08:31:30;16.07;;;6.33;;
17235;SDS011;8734;59.272;17.780;2023-11-22T08:33:59;13.43;;;6.03;;
17235;SDS011;8734;59.272;17.780;2023-11-22T08:36:27;11.93;;;4.60;;
17235;SDS011;8734;59.272;17.780;2023-11-22T08:38:55;17.03;;;6.87;;
17235;SDS011;8734;59.272;17.780;2023-11-22T08:41:27;13.23;;;5.70;;
17235;SDS011;8734;59.272;17.780;2023-11-22T08:43:56;10.23;;;4.77;;
17235;SDS011;8734;59.272;17.780;2023-11-22T08:46:24;16.57;;;8.10;;
17235;SDS011;8734;59.272;17.780;2023-11-22T08:48:53;12.67;;;5.03;;
17235;SDS011;8734;59.272;17.780;2023-11-22T08:51:23;9.93;;;5.50;;
17235;SDS011;8734;59.272;17.780;2023-11-22T08:53:51;19.03;;;6.77;;
17235;SDS011;8734;59.272;17.780;2023-11-22T08:56:21;11.23;;;4.50;;
17235;SDS011;8734;59.272;17.780;2023-11-22T08:58:51;15.57;;;5.53;;
17235;SDS011;8734;59.272;17.780;2023-11-22T09:01:21;12.03;;;5.37;;
17235;SDS011;8734;59.272;17.780;2023-11-22T09:03:49;11.17;;;2.63;;
17235;SDS011;8734;59.272;17.780;2023-11-22T09:06:18;8.13;;;5.00;;
17235;SDS011;8734;59.272;17.780;2023-11-22T09:08:47;11.20;;;5.47;;
17235;SDS011;8734;59.272;17.780;2023-11-22T09:11:16;9.70;;;4.37;;
17235;SDS011;8734;59.272;17.780;2023-11-22T09:13:48;10.33;;;3.80;;
17235;SDS011;8734;59.272;17.780;2023-11-22T09:16:18;8.67;;;3.97;;
17235;SDS011;8734;59.272;17.780;2023-11-22T09:18:48;7.23;;;3.80;;
17235;SDS011;8734;59.272;17.780;2023-11-22T09:21:17;7.97;;;3.77;;
17235;SDS011;8734;59.272;17.780;2023-11-22T09:23:45;10.30;;;3.60;;
17235;SDS011;8734;59.272;17.780;2023-11-22T09:26:15;7.27;;;3.63;;
17235;SDS011;8734;59.272;17.780;2023-11-22T09:28:43;7.03;;;3.67;;
17235;SDS011;8734;59.272;17.780;2023-11-22T09:31:11;7.80;;;4.07;;
17235;SDS011;8734;59.272;17.780;2023-11-22T09:33:45;9.13;;;4.67;;
17235;SDS011;8734;59.272;17.780;2023-11-22T09:36:14;11.27;;;4.53;;
17235;SDS011;8734;59.272;17.780;2023-11-22T09:38:44;10.90;;;3.90;;
17235;SDS011;8734;59.272;17.780;2023-11-22T09:41:14;7.67;;;3.40;;
17235;SDS011;8734;59.272;17.780;2023-11-22T09:43:42;8.60;;;4.23;;
17235;SDS011;8734;59.272;17.780;2023-11-22T09:46:13;7.57;;;3.77;;
17235;SDS011;8734;59.272;17.780;2023-11-22T09:48:43;8.47;;;3.77;;
17235;SDS011;8734;59.272;17.780;2023-11-22T09:51:19;7.63;;;3.53;;
17235;SDS011;8734;59.272;17.780;2023-11-22T09:53:52;7.03;;;3.40;;
17235;SDS011;8734;59.272;17.780;2023-11-22T09:56:23;9.80;;;4.93;;
17235;SDS011;8734;59.272;17.780;2023-11-22T09:58:52;7.77;;;3.53;;
17235;SDS011;8734;59.272;17.780;2023-11-22T10:01:23;8.00;;;4.30;;
17235;SDS011;8734;59.272;17.780;2023-11-22T10:03:53;5.03;;;2.03;;
17235;SDS011;8734;59.272;17.780;2023-11-22T10:06:22;9.93;;;4.03;;
17235;SDS011;8734;59.272;17.780;2023-11-22T10:08:51;9.20;;;4.30;;
17235;SDS011;8734;59.272;17.780;2023-11-22T10:11:20;8.73;;;3.97;;
17235;SDS011;8734;59.272;17.780;2023-11-22T10:13:48;7.10;;;3.33;;
17235;SDS011;8734;59.272;17.780;2023-11-22T10:16:18;6.23;;;3.07;;
17235;SDS011;8734;59.272;17.780;2023-11-22T10:18:48;4.27;;;2.57;;
17235;SDS011;8734;59.272;17.780;2023-11-22T10:21:22;9.17;;;3.93;;
17235;SDS011;8734;59.272;17.780;2023-11-22T10:23:52;3.53;;;2.03;;
17235;SDS011;8734;59.272;17.780;2023-11-22T10:26:23;4.17;;;1.97;;
17235;SDS011;8734;59.272;17.780;2023-11-22T10:28:56;11.67;;;4.00;;
17235;SDS011;8734;59.272;17.780;2023-11-22T10:31:28;5.90;;;3.23;;
17235;SDS011;8734;59.272;17.780;2023-11-22T10:33:57;10.63;;;4.80;;
17235;SDS011;8734;59.272;17.780;2023-11-22T10:36:26;9.13;;;3.57;;
17235;SDS011;8734;59.272;17.780;2023-11-22T10:38:55;7.23;;;3.40;;
17235;SDS011;8734;59.272;17.780;2023-11-22T10:41:27;5.73;;;2.70;;
17235;SDS011;8734;59.272;17.780;2023-11-22T10:43:58;7.90;;;4.27;;
17235;SDS011;8734;59.272;17.780;2023-11-22T10:46:27;7.10;;;3.47;;
17235;SDS011;8734;59.272;17.780;2023-11-22T10:48:57;9.43;;;4.33;;
17235;SDS011;8734;59.272;17.780;2023-11-22T10:51:30;7.77;;;4.23;;
17235;SDS011;8734;59.272;17.780;2023-11-22T10:53:59;5.87;;;2.33;;
17235;SDS011;8734;59.272;17.780;2023-11-22T10:56:33;6.00;;;2.93;;
17235;SDS011;8734;59.272;17.780;2023-11-22T10:59:09;8.23;;;4.30;;
17235;SDS011;8734;59.272;17.780;2023-11-22T11:01:40;5.60;;;2.27;;
17235;SDS011;8734;59.272;17.780;2023-11-22T11:04:16;4.87;;;2.10;;
17235;SDS011;8734;59.272;17.780;2023-11-22T11:06:51;7.33;;;3.60;;
17235;SDS011;8734;59.272;17.780;2023-11-22T11:09:22;4.03;;;2.20;;
17235;SDS011;8734;59.272;17.780;2023-11-22T11:11:56;3.37;;;1.90;;
17235;SDS011;8734;59.272;17.780;2023-11-22T11:14:25;5.90;;;3.60;;
17235;SDS011;8734;59.272;17.780;2023-11-22T11:16:54;7.70;;;4.33;;
17235;SDS011;8734;59.272;17.780;2023-11-22T11:19:25;3.80;;;2.17;;
17235;SDS011;8734;59.272;17.780;2023-11-22T11:21:56;5.10;;;2.77;;
17235;SDS011;8734;59.272;17.780;2023-11-22T11:24:25;5.77;;;3.20;;
17235;SDS011;8734;59.272;17.780;2023-11-22T11:26:53;5.33;;;3.00;;
17235;SDS011;8734;59.272;17.780;2023-11-22T11:29:31;4.50;;;3.30;;
17235;SDS011;8734;59.272;17.780;2023-11-22T11:32:02;5.70;;;3.27;;
17235;SDS011;8734;59.272;17.780;2023-11-22T11:34:30;6.27;;;3.33;;
17235;SDS011;8734;59.272;17.780;2023-11-22T11:37:00;6.57;;;2.87;;
17235;SDS011;8734;59.272;17.780;2023-11-22T11:39:32;4.97;;;2.87;;
17235;SDS011;8734;59.272;17.780;2023-11-22T11:42:08;5.63;;;2.60;;
17235;SDS011;8734;59.272;17.780;2023-11-22T11:45:02;5.57;;;3.03;;
17235;SDS011;8734;59.272;17.780;2023-11-22T11:47:33;5.53;;;3.17;;
17235;SDS011;8734;59.272;17.780;2023-11-22T11:50:02;5.00;;;3.17;;
17235;SDS011;8734;59.272;17.780;2023-11-22T11:52:32;7.93;;;3.30;;
17235;SDS011;8734;59.272;17.780;2023-11-22T11:55:02;6.00;;;2.87;;
17235;SDS011;8734;59.272;17.780;2023-11-22T11:57:31;7.43;;;2.83;;
17235;SDS011;8734;59.272;17.780;2023-11-22T12:00:00;4.23;;;2.97;;
17235;SDS011;8734;59.272;17.780;2023-11-22T12:02:30;4.83;;;2.70;;
17235;SDS011;8734;59.272;17.780;2023-11-22T12:04:58;5.77;;;3.10;;
17235;SDS011;8734;59.272;17.780;2023-11-22T12:07:27;5.73;;;2.80;;
17235;SDS011;8734;59.272;17.780;2023-11-22T12:09:57;7.30;;;4.10;;
17235;SDS011;8734;59.272;17.780;2023-11-22T12:12:26;4.10;;;2.83;;
17235;SDS011;8734;59.272;17.780;2023-11-22T12:14:55;6.03;;;3.10;;
17235;SDS011;8734;59.272;17.780;2023-11-22T12:17:25;4.07;;;2.37;;
17235;SDS011;8734;59.272;17.780;2023-11-22T12:19:55;4.03;;;2.70;;
17235;SDS011;8734;59.272;17.780;2023-11-22T12:22:38;4.73;;;2.50;;
17235;SDS011;8734;59.272;17.780;2023-11-22T12:25:09;6.27;;;3.30;;
17235;SDS011;8734;59.272;17.780;2023-11-22T12:27:39;6.13;;;3.20;;
17235;SDS011;8734;59.272;17.780;2023-11-22T12:30:08;3.40;;;1.90;;
17235;SDS011;8734;59.272;17.780;2023-11-22T12:32:38;5.33;;;3.17;;
17235;SDS011;8734;59.272;17.780;2023-11-22T12:35:09;3.20;;;2.10;;
17235;SDS011;8734;59.272;17.780;2023-11-22T12:37:40;4.30;;;2.00;;
17235;SDS011;8734;59.272;17.780;2023-11-22T12:40:13;6.83;;;2.50;;
17235;SDS011;8734;59.272;17.780;2023-11-22T12:42:47;7.23;;;2.63;;
17235;SDS011;8734;59.272;17.780;2023-11-22T12:45:19;3.20;;;1.90;;
17235;SDS011;8734;59.272;17.780;2023-11-22T12:47:50;3.87;;;2.07;;
17235;SDS011;8734;59.272;17.780;2023-11-22T12:50:32;4.83;;;2.67;;
17235;SDS011;8734;59.272;17.780;2023-11-22T12:53:08;2.73;;;1.77;;
17235;SDS011;8734;59.272;17.780;2023-11-22T12:55:46;3.37;;;1.80;;
17235;SDS011;8734;59.272;17.780;2023-11-22T12:58:16;5.27;;;2.10;;
17235;SDS011;8734;59.272;17.780;2023-11-22T13:00:45;4.80;;;2.50;;
17235;SDS011;8734;59.272;17.780;2023-11-22T13:03:14;4.97;;;2.40;;
17235;SDS011;8734;59.272;17.780;2023-11-22T13:05:43;2.13;;;1.43;;
17235;SDS011;8734;59.272;17.780;2023-11-22T13:08:12;4.57;;;2.67;;
17235;SDS011;8734;59.272;17.780;2023-11-22T13:10:43;10.33;;;2.43;;
17235;SDS011;8734;59.272;17.780;2023-11-22T13:13:14;5.47;;;1.63;;
17235;SDS011;8734;59.272;17.780;2023-11-22T13:15:43;4.10;;;2.77;;
17235;SDS011;8734;59.272;17.780;2023-11-22T13:18:12;4.77;;;2.70;;
17235;SDS011;8734;59.272;17.780;2023-11-22T13:20:41;5.87;;;2.10;;
17235;SDS011;8734;59.272;17.780;2023-11-22T13:23:09;3.90;;;2.13;;
17235;SDS011;8734;59.272;17.780;2023-11-22T13:25:38;6.97;;;2.77;;
17235;SDS011;8734;59.272;17.780;2023-11-22T13:28:07;3.50;;;2.13;;
17235;SDS011;8734;59.272;17.780;2023-11-22T13:30:37;4.37;;;2.47;;
17235;SDS011;8734;59.272;17.780;2023-11-22T13:33:05;9.17;;;2.70;;
17235;SDS011;8734;59.272;17.780;2023-11-22T13:35:34;4.23;;;2.57;;
17235;SDS011;8734;59.272;17.780;2023-11-22T13:38:04;2.90;;;1.60;;
17235;SDS011;8734;59.272;17.780;2023-11-22T13:40:38;7.37;;;2.47;;
17235;SDS011;8734;59.272;17.780;2023-11-22T13:43:07;4.63;;;2.53;;
17235;SDS011;8734;59.272;17.780;2023-11-22T13:45:35;4.07;;;2.17;;
17235;SDS011;8734;59.272;17.780;2023-11-22T13:48:08;6.03;;;3.07;;
17235;SDS011;8734;59.272;17.780;2023-11-22T13:50:38;5.07;;;3.00;;
17235;SDS011;8734;59.272;17.780;2023-11-22T13:53:06;3.47;;;2.17;;
17235;SDS011;8734;59.272;17.780;2023-11-22T13:55:37;4.57;;;2.67;;
17235;SDS011;8734;59.272;17.780;2023-11-22T13:58:06;9.00;;;3.67;;
17235;SDS011;8734;59.272;17.780;2023-11-22T14:00:35;5.77;;;2.97;;
17235;SDS011;8734;59.272;17.780;2023-11-22T14:03:05;3.47;;;2.60;;
17235;SDS011;8734;59.272;17.780;2023-11-22T14:05:35;4.03;;;2.67;;
17235;SDS011;8734;59.272;17.780;2023-11-22T14:08:05;4.10;;;2.67;;
17235;SDS011;8734;59.272;17.780;2023-11-22T14:10:34;4.47;;;2.87;;
17235;SDS011;8734;59.272;17.780;2023-11-22T14:13:03;8.07;;;3.30;;
17235;SDS011;8734;59.272;17.780;2023-11-22T14:15:32;4.17;;;2.27;;
17235;SDS011;8734;59.272;17.780;2023-11-22T14:18:03;3.03;;;1.77;;
17235;SDS011;8734;59.272;17.780;2023-11-22T14:20:31;4.47;;;2.60;;
17235;SDS011;8734;59.272;17.780;2023-11-22T14:23:01;5.33;;;2.60;;
17235;SDS011;8734;59.272;17.780;2023-11-22T14:25:29;5.37;;;2.03;;
17235;SDS011;8734;59.272;17.780;2023-11-22T14:27:58;3.07;;;1.73;;
17235;SDS011;8734;59.272;17.780;2023-11-22T14:30:27;3.50;;;1.80;;
17235;SDS011;8734;59.272;17.780;2023-11-22T14:32:57;4.73;;;2.50;;
17235;SDS011;8734;59.272;17.780;2023-11-22T14:35:28;4.93;;;2.37;;
17235;SDS011;8734;59.272;17.780;2023-11-22T14:37:56;5.23;;;1.80;;
17235;SDS011;8734;59.272;17.780;2023-11-22T14:40:27;3.53;;;2.40;;
17235;SDS011;8734;59.272;17.780;2023-11-22T14:42:57;6.63;;;2.63;;
17235;SDS011;8734;59.272;17.780;2023-11-22T14:45:26;4.67;;;2.70;;
17235;SDS011;8734;59.272;17.780;2023-11-22T14:47:55;5.03;;;2.80;;
17235;SDS011;8734;59.272;17.780;2023-11-22T14:50:23;3.40;;;2.03;;
17235;SDS011;8734;59.272;17.780;2023-11-22T14:52:56;3.90;;;2.10;;
17235;SDS011;8734;59.272;17.780;2023-11-22T14:55:24;2.73;;;1.57;;
17235;SDS011;8734;59.272;17.780;2023-11-22T14:57:53;2.83;;;2.27;;
17235;SDS011;8734;59.272;17.780;2023-11-22T15:00:28;4.60;;;1.83;;